Time;durP1;ratioP1;P1;durP2;ratioP2;P2;SDS_P1;SDS_P2;PMS_P1;PMS_P2;Temp;Humidity;BMP_temperature;BMP_pressure;BME280_temperature;BME280_humidity;BME280_pressure;Samples;Min_cycle;Max_cycle;Signal;HPM_P1;HPM_P2
2024/01/20 00:00:33;;;;;;;0.00;0.00;;;;;;;;;;5039826;28;20121;-69
2024/01/20 00:02:59;;;;;;;0.00;0.00;;;;;;;;;;5039352;28;20025;-69
2024/01/20 00:05:25;;;;;;;0.00;0.00;;;;;;;;;;5038617;28;20025;-69
2024/01/20 00:07:51;;;;;;;0.00;0.00;;;;;;;;;;5032692;28;20111;-69
2024/01/20 00:10:17;;;;;;;0.00;0.00;;;;;;;;;;5034055;28;20116;-69
2024/01/20 00:12:43;;;;;;;0.00;0.00;;;;;;;;;;5043171;28;20036;-69
2024/01/20 00:15:09;;;;;;;0.00;0.00;;;;;;;;;;5036821;28;20063;-69
2024/01/20 00:17:36;;;;;;;0.00;0.00;;;;;;;;;;5034084;28;20040;-69
2024/01/20 00:20:02;;;;;;;0.00;0.00;;;;;;;;;;5034108;28;20032;-69
2024/01/20 00:22:28;;;;;;;0.00;0.00;;;;;;;;;;5038469;28;20120;-67
2024/01/20 00:24:58;;;;;;;0.00;0.00;;;;;;;;;;5029961;28;20100;-67
2024/01/20 00:27:24;;;;;;;0.00;0.00;;;;;;;;;;5035443;28;20037;-69
2024/01/20 00:29:50;;;;;;;0.00;0.00;;;;;;;;;;5035900;28;20040;-69
2024/01/20 00:32:16;;;;;;;0.00;0.00;;;;;;;;;;5037627;28;20391;-69
2024/01/20 00:34:42;;;;;;;0.00;0.00;;;;;;;;;;5037312;28;20075;-69
2024/01/20 00:37:08;;;;;;;0.00;0.00;;;;;;;;;;5033202;28;20112;-69
2024/01/20 00:39:34;;;;;;;0.00;0.00;;;;;;;;;;5033791;28;20033;-69
2024/01/20 00:42:00;;;;;;;0.00;0.00;;;;;;;;;;5034507;28;20048;-69
2024/01/20 00:44:26;;;;;;;0.00;0.00;;;;;;;;;;5035076;28;20029;-69
2024/01/20 00:46:52;;;;;;;0.00;0.00;;;;;;;;;;5039198;28;20067;-69
2024/01/20 00:49:18;;;;;;;0.00;0.00;;;;;;;;;;5029702;28;20041;-69
2024/01/20 00:51:44;;;;;;;0.00;0.00;;;;;;;;;;5034430;28;20033;-69
2024/01/20 00:54:10;;;;;;;0.00;0.00;;;;;;;;;;5038391;28;20040;-69
2024/01/20 00:56:36;;;;;;;0.00;0.00;;;;;;;;;;5032656;28;20056;-69
2024/01/20 00:59:02;;;;;;;0.00;0.00;;;;;;;;;;5032794;28;20045;-69
2024/01/20 01:01:27;;;;;;;0.00;0.00;;;;;;;;;;5032371;28;20060;-69
2024/01/20 01:03:53;;;;;;;0.00;0.00;;;;;;;;;;5027369;28;20187;-69
2024/01/20 01:06:19;;;;;;;0.00;0.00;;;;;;;;;;5041336;28;20036;-69
2024/01/20 01:08:45;;;;;;;0.00;0.00;;;;;;;;;;5038642;28;20048;-69
2024/01/20 01:11:11;;;;;;;0.00;0.00;;;;;;;;;;5038580;28;20028;-69
2024/01/20 01:13:39;;;;;;;0.00;0.00;;;;;;;;;;5035306;28;20056;-69
2024/01/20 01:16:05;;;;;;;0.00;0.00;;;;;;;;;;5039107;28;20032;-69
2024/01/20 01:18:31;;;;;;;0.00;0.00;;;;;;;;;;5029070;28;20036;-69
2024/01/20 01:20:57;;;;;;;0.00;0.00;;;;;;;;;;5033287;28;20385;-69
2024/01/20 01:23:23;;;;;;;0.00;0.00;;;;;;;;;;5032279;28;20041;-69
2024/01/20 01:25:49;;;;;;;0.00;0.00;;;;;;;;;;5036732;28;20423;-69
2024/01/20 01:28:15;;;;;;;0.00;0.00;;;;;;;;;;5037942;28;20599;-69
2024/01/20 01:30:41;;;;;;;0.00;0.00;;;;;;;;;;5030437;28;20026;-69
2024/01/20 01:33:07;;;;;;;0.00;0.00;;;;;;;;;;5031755;28;20022;-69
2024/01/20 01:35:33;;;;;;;0.00;0.00;;;;;;;;;;5040307;28;20064;-69
2024/01/20 01:37:59;;;;;;;0.00;0.00;;;;;;;;;;5038586;28;20413;-69
2024/01/20 01:40:25;;;;;;;0.00;0.00;;;;;;;;;;5037186;28;20667;-69
2024/01/20 01:42:56;;;;;;;0.00;0.00;;;;;;;;;;5036583;28;20044;-69
2024/01/20 01:45:22;;;;;;;0.00;0.00;;;;;;;;;;5033699;28;20150;-70
2024/01/20 01:47:48;;;;;;;0.00;0.00;;;;;;;;;;5032272;28;20057;-69
2024/01/20 01:50:14;;;;;;;0.00;0.00;;;;;;;;;;5034955;28;20083;-69
2024/01/20 01:52:41;;;;;;;0.00;0.00;;;;;;;;;;5040041;28;20457;-69
2024/01/20 01:55:07;;;;;;;0.00;0.00;;;;;;;;;;5040735;28;20057;-69
2024/01/20 01:57:35;;;;;;;0.00;0.00;;;;;;;;;;5037998;28;20037;-69
2024/01/20 02:00:02;;;;;;;0.00;0.00;;;;;;;;;;5038122;28;20110;-69
2024/01/20 02:02:28;;;;;;;0.00;0.00;;;;;;;;;;5041710;28;20029;-69
2024/01/20 02:04:54;;;;;;;0.00;0.00;;;;;;;;;;5044740;28;20043;-69
2024/01/20 02:07:20;;;;;;;0.00;0.00;;;;;;;;;;5041236;28;20157;-69
2024/01/20 02:09:46;;;;;;;0.00;0.00;;;;;;;;;;5036271;28;20048;-69
2024/01/20 02:12:14;;;;;;;0.00;0.00;;;;;;;;;;5041885;28;20043;-69
2024/01/20 02:14:41;;;;;;;0.00;0.00;;;;;;;;;;5044569;28;20052;-69
2024/01/20 02:17:06;;;;;;;0.00;0.00;;;;;;;;;;5029735;28;20427;-69
2024/01/20 02:19:36;;;;;;;0.00;0.00;;;;;;;;;;5033509;28;20038;-69
2024/01/20 02:22:09;;;;;;;0.00;0.00;;;;;;;;;;5044562;28;20032;-69
2024/01/20 02:24:35;;;;;;;0.00;0.00;;;;;;;;;;5036867;28;20033;-69
2024/01/20 02:27:01;;;;;;;0.00;0.00;;;;;;;;;;5038550;28;20404;-69
2024/01/20 02:29:27;;;;;;;0.00;0.00;;;;;;;;;;5036429;28;20052;-69
2024/01/20 02:31:53;;;;;;;0.00;0.00;;;;;;;;;;5038595;28;20036;-69
2024/01/20 02:34:19;;;;;;;0.00;0.00;;;;;;;;;;5040622;28;20033;-69
2024/01/20 02:36:45;;;;;;;0.00;0.00;;;;;;;;;;5031530;28;20025;-69
2024/01/20 02:39:11;;;;;;;0.00;0.00;;;;;;;;;;5041019;28;20108;-68
2024/01/20 02:41:37;;;;;;;0.00;0.00;;;;;;;;;;5041785;28;20539;-66
2024/01/20 02:44:03;;;;;;;0.00;0.00;;;;;;;;;;5044751;28;20421;-66
2024/01/20 02:46:29;;;;;;;0.00;0.00;;;;;;;;;;5039498;28;20034;-66
2024/01/20 02:48:55;;;;;;;0.00;0.00;;;;;;;;;;5034644;28;20041;-67
2024/01/20 02:51:21;;;;;;;0.00;0.00;;;;;;;;;;5031663;28;20029;-66
2024/01/20 02:53:47;;;;;;;0.00;0.00;;;;;;;;;;5036601;28;20014;-66
2024/01/20 02:56:13;;;;;;;0.00;0.00;;;;;;;;;;5041747;28;20089;-66
2024/01/20 02:58:39;;;;;;;0.00;0.00;;;;;;;;;;5041518;28;20025;-65
2024/01/20 03:01:06;;;;;;;0.00;0.00;;;;;;;;;;5029590;28;20041;-67
2024/01/20 03:03:32;;;;;;;0.00;0.00;;;;;;;;;;5035129;28;20624;-67
2024/01/20 03:05:58;;;;;;;0.00;0.00;;;;;;;;;;5028034;28;20029;-67
2024/01/20 03:08:24;;;;;;;0.00;0.00;;;;;;;;;;5039482;28;20039;-67
2024/01/20 03:10:50;;;;;;;0.00;0.00;;;;;;;;;;5039396;28;20032;-66
2024/01/20 03:13:16;;;;;;;0.00;0.00;;;;;;;;;;5040455;28;20021;-66
2024/01/20 03:15:42;;;;;;;0.00;0.00;;;;;;;;;;5040223;28;20036;-68
2024/01/20 03:18:10;;;;;;;0.00;0.00;;;;;;;;;;5036903;28;20509;-66
2024/01/20 03:20:36;;;;;;;0.00;0.00;;;;;;;;;;5039221;28;20051;-67
2024/01/20 03:23:02;;;;;;;0.00;0.00;;;;;;;;;;5039916;28;20029;-67
2024/01/20 03:25:28;;;;;;;0.00;0.00;;;;;;;;;;5038232;28;20120;-67
2024/01/20 03:27:54;;;;;;;0.00;0.00;;;;;;;;;;5031688;28;20216;-68
2024/01/20 03:30:21;;;;;;;0.00;0.00;;;;;;;;;;5032927;28;20183;-66
2024/01/20 03:32:47;;;;;;;0.00;0.00;;;;;;;;;;5034120;28;20032;-68
2024/01/20 03:35:13;;;;;;;0.00;0.00;;;;;;;;;;5032329;28;20043;-67
2024/01/20 03:37:39;;;;;;;0.00;0.00;;;;;;;;;;5037611;28;20104;-66
2024/01/20 03:40:05;;;;;;;0.00;0.00;;;;;;;;;;5039100;28;21082;-66
2024/01/20 03:42:31;;;;;;;0.00;0.00;;;;;;;;;;5038137;28;20036;-67
2024/01/20 03:44:57;;;;;;;0.00;0.00;;;;;;;;;;5039396;28;20828;-66
2024/01/20 03:47:23;;;;;;;0.00;0.00;;;;;;;;;;5042834;28;20111;-69
2024/01/20 03:49:49;;;;;;;0.00;0.00;;;;;;;;;;5037924;28;20044;-67
2024/01/20 03:52:14;;;;;;;0.00;0.00;;;;;;;;;;5040165;28;20109;-67
2024/01/20 03:54:43;;;;;;;0.00;0.00;;;;;;;;;;5034776;28;20044;-66
2024/01/20 03:57:09;;;;;;;0.00;0.00;;;;;;;;;;5031882;28;20045;-67
2024/01/20 03:59:35;;;;;;;0.00;0.00;;;;;;;;;;5039341;28;20635;-67
2024/01/20 04:02:01;;;;;;;0.00;0.00;;;;;;;;;;5041109;28;20565;-66
2024/01/20 04:04:27;;;;;;;0.00;0.00;;;;;;;;;;5033805;28;20440;-66
2024/01/20 04:06:53;;;;;;;0.00;0.00;;;;;;;;;;5035850;28;20030;-66
2024/01/20 04:09:19;;;;;;;0.00;0.00;;;;;;;;;;5042624;28;20472;-66
2024/01/20 04:11:45;;;;;;;0.00;0.00;;;;;;;;;;5036581;28;20025;-67
2024/01/20 04:14:11;;;;;;;0.00;0.00;;;;;;;;;;5041240;28;20379;-66
2024/01/20 04:16:37;;;;;;;0.00;0.00;;;;;;;;;;5035796;28;20033;-66
2024/01/20 04:19:03;;;;;;;0.00;0.00;;;;;;;;;;5038582;28;20083;-66
2024/01/20 04:21:29;;;;;;;0.00;0.00;;;;;;;;;;5039280;28;20115;-68
2024/01/20 04:23:55;;;;;;;0.00;0.00;;;;;;;;;;5039454;28;20025;-67
2024/01/20 04:26:21;;;;;;;0.00;0.00;;;;;;;;;;5034449;28;20033;-68
2024/01/20 04:28:47;;;;;;;0.00;0.00;;;;;;;;;;5038284;28;20045;-66
2024/01/20 04:31:13;;;;;;;0.00;0.00;;;;;;;;;;5033366;28;20029;-66
2024/01/20 04:33:40;;;;;;;0.00;0.00;;;;;;;;;;5041118;28;20039;-66
2024/01/20 04:36:06;;;;;;;0.00;0.00;;;;;;;;;;5043623;28;20017;-67
2024/01/20 04:38:33;;;;;;;0.00;0.00;;;;;;;;;;5035894;28;20054;-66
2024/01/20 04:41:06;;;;;;;0.00;0.00;;;;;;;;;;5031415;28;20072;-67
2024/01/20 04:43:32;;;;;;;0.00;0.00;;;;;;;;;;5028927;28;20040;-67
2024/01/20 04:45:58;;;;;;;0.00;0.00;;;;;;;;;;5033755;28;20032;-66
2024/01/20 04:48:24;;;;;;;0.00;0.00;;;;;;;;;;5039348;28;20057;-66
2024/01/20 04:50:50;;;;;;;0.00;0.00;;;;;;;;;;5037714;28;20210;-67
2024/01/20 04:53:16;;;;;;;0.00;0.00;;;;;;;;;;5041635;28;20029;-66
2024/01/20 04:55:42;;;;;;;0.00;0.00;;;;;;;;;;5038053;28;20048;-67
2024/01/20 04:58:08;;;;;;;0.00;0.00;;;;;;;;;;5032923;28;20025;-67
2024/01/20 05:00:34;;;;;;;0.00;0.00;;;;;;;;;;5033106;28;20041;-66
2024/01/20 05:03:00;;;;;;;0.00;0.00;;;;;;;;;;5032813;28;20175;-66
2024/01/20 05:05:26;;;;;;;0.00;0.00;;;;;;;;;;5033302;28;20621;-66
2024/01/20 05:07:52;;;;;;;0.00;0.00;;;;;;;;;;5027615;28;20491;-66
2024/01/20 05:10:18;;;;;;;0.00;0.00;;;;;;;;;;5038703;28;20061;-67
2024/01/20 05:12:44;;;;;;;0.00;0.00;;;;;;;;;;5034411;28;20424;-66
2024/01/20 05:15:11;;;;;;;0.00;0.00;;;;;;;;;;5029806;28;20553;-67
2024/01/20 05:17:37;;;;;;;0.00;0.00;;;;;;;;;;5039031;28;20071;-66
2024/01/20 05:20:05;;;;;;;0.00;0.00;;;;;;;;;;5036236;28;20556;-67
2024/01/20 05:22:31;;;;;;;0.00;0.00;;;;;;;;;;5041872;28;20214;-66
2024/01/20 05:24:57;;;;;;;0.00;0.00;;;;;;;;;;5039731;28;20060;-67
2024/01/20 05:27:23;;;;;;;0.00;0.00;;;;;;;;;;5038881;28;20021;-66
2024/01/20 05:29:49;;;;;;;0.00;0.00;;;;;;;;;;5044643;28;20519;-66
2024/01/20 05:32:15;;;;;;;0.00;0.00;;;;;;;;;;5046873;28;20154;-66
2024/01/20 05:34:41;;;;;;;0.00;0.00;;;;;;;;;;5041862;28;20507;-66
2024/01/20 05:37:07;;;;;;;0.00;0.00;;;;;;;;;;5041281;28;20167;-63
2024/01/20 05:39:34;;;;;;;0.00;0.00;;;;;;;;;;5042458;28;20302;-64
2024/01/20 05:42:01;;;;;;;0.00;0.00;;;;;;;;;;5041145;28;20560;-64
2024/01/20 05:44:27;;;;;;;0.00;0.00;;;;;;;;;;5041258;28;20368;-64
2024/01/20 05:46:53;;;;;;;0.00;0.00;;;;;;;;;;5035931;28;20060;-63
2024/01/20 05:49:19;;;;;;;0.00;0.00;;;;;;;;;;5039498;28;20138;-67
2024/01/20 05:51:45;;;;;;;0.00;0.00;;;;;;;;;;5043745;28;20029;-68
2024/01/20 05:54:11;;;;;;;0.00;0.00;;;;;;;;;;5044057;28;20040;-67
2024/01/20 05:56:37;;;;;;;0.00;0.00;;;;;;;;;;5040420;28;20029;-66
2024/01/20 05:59:03;;;;;;;0.00;0.00;;;;;;;;;;5042551;28;20044;-67
2024/01/20 06:01:29;;;;;;;0.00;0.00;;;;;;;;;;5043292;28;20047;-68
2024/01/20 06:03:54;;;;;;;0.00;0.00;;;;;;;;;;5045145;28;20363;-66
2024/01/20 06:06:20;;;;;;;0.00;0.00;;;;;;;;;;5044574;28;20029;-66
2024/01/20 06:08:46;;;;;;;0.00;0.00;;;;;;;;;;5048261;28;20151;-66
2024/01/20 06:11:12;;;;;;;0.00;0.00;;;;;;;;;;5042308;28;20028;-66
2024/01/20 06:13:38;;;;;;;0.00;0.00;;;;;;;;;;5046059;28;20082;-66
2024/01/20 06:16:07;;;;;;;0.00;0.00;;;;;;;;;;5046033;28;20044;-67
2024/01/20 06:18:33;;;;;;;0.00;0.00;;;;;;;;;;5039875;28;20025;-66
2024/01/20 06:21:00;;;;;;;0.00;0.00;;;;;;;;;;5040745;28;20056;-67
2024/01/20 06:23:26;;;;;;;0.00;0.00;;;;;;;;;;5042805;28;20426;-66
2024/01/20 06:25:52;;;;;;;0.00;0.00;;;;;;;;;;5047363;28;20041;-66
2024/01/20 06:28:18;;;;;;;0.00;0.00;;;;;;;;;;5042343;28;20079;-66
2024/01/20 06:30:46;;;;;;;0.00;0.00;;;;;;;;;;5043163;28;20037;-66
2024/01/20 06:33:13;;;;;;;0.00;0.00;;;;;;;;;;5041075;28;20013;-66
2024/01/20 06:35:38;;;;;;;0.00;0.00;;;;;;;;;;5040382;28;20136;-66
2024/01/20 06:38:05;;;;;;;0.00;0.00;;;;;;;;;;5041663;28;20120;-67
2024/01/20 06:40:30;;;;;;;0.00;0.00;;;;;;;;;;5038775;28;20059;-66
2024/01/20 06:42:56;;;;;;;0.00;0.00;;;;;;;;;;5042172;28;20057;-66
2024/01/20 06:45:22;;;;;;;0.00;0.00;;;;;;;;;;5035264;28;20376;-66
2024/01/20 06:47:48;;;;;;;0.00;0.00;;;;;;;;;;5040300;28;20035;-66
2024/01/20 06:50:15;;;;;;;0.00;0.00;;;;;;;;;;5035105;28;20087;-66
2024/01/20 06:52:41;;;;;;;0.00;0.00;;;;;;;;;;5043264;28;20036;-66
2024/01/20 06:55:07;;;;;;;0.00;0.00;;;;;;;;;;5043627;28;20068;-66
2024/01/20 06:57:33;;;;;;;0.00;0.00;;;;;;;;;;5037076;28;20059;-66
2024/01/20 06:59:59;;;;;;;0.00;0.00;;;;;;;;;;5033210;28;20059;-66
2024/01/20 07:02:25;;;;;;;0.00;0.00;;;;;;;;;;5034527;28;20065;-67
2024/01/20 07:04:51;;;;;;;0.00;0.00;;;;;;;;;;5037704;28;20484;-67
2024/01/20 07:07:17;;;;;;;0.00;0.00;;;;;;;;;;5037072;28;20052;-66
2024/01/20 07:09:43;;;;;;;0.00;0.00;;;;;;;;;;5036879;28;20026;-66
2024/01/20 07:12:09;;;;;;;0.00;0.00;;;;;;;;;;5033034;28;20067;-67
2024/01/20 07:14:35;;;;;;;0.00;0.00;;;;;;;;;;5042722;28;20112;-67
2024/01/20 07:17:01;;;;;;;0.00;0.00;;;;;;;;;;5038896;28;20029;-67
2024/01/20 07:19:27;;;;;;;0.00;0.00;;;;;;;;;;5033057;28;20037;-67
2024/01/20 07:21:53;;;;;;;0.00;0.00;;;;;;;;;;5039193;28;20036;-66
2024/01/20 07:24:19;;;;;;;0.00;0.00;;;;;;;;;;5043184;28;20067;-66
2024/01/20 07:26:45;;;;;;;0.00;0.00;;;;;;;;;;5039985;28;20040;-67
2024/01/20 07:29:11;;;;;;;0.00;0.00;;;;;;;;;;5036822;28;20041;-66
2024/01/20 07:31:37;;;;;;;0.00;0.00;;;;;;;;;;5038571;28;20032;-66
2024/01/20 07:34:03;;;;;;;0.00;0.00;;;;;;;;;;5037078;28;20194;-67
2024/01/20 07:36:29;;;;;;;0.00;0.00;;;;;;;;;;5041757;28;20060;-66
2024/01/20 07:38:55;;;;;;;0.00;0.00;;;;;;;;;;5035907;28;20025;-68
2024/01/20 07:41:21;;;;;;;0.00;0.00;;;;;;;;;;5040090;28;20038;-67
2024/01/20 07:43:47;;;;;;;0.00;0.00;;;;;;;;;;5038907;28;20061;-67
2024/01/20 07:46:13;;;;;;;0.00;0.00;;;;;;;;;;5035549;28;20064;-67
2024/01/20 07:48:39;;;;;;;0.00;0.00;;;;;;;;;;5038923;28;20033;-66
2024/01/20 07:51:05;;;;;;;0.00;0.00;;;;;;;;;;5036634;28;20025;-65
2024/01/20 07:53:31;;;;;;;0.00;0.00;;;;;;;;;;5038397;28;20673;-65
2024/01/20 07:55:57;;;;;;;0.00;0.00;;;;;;;;;;5037387;28;20033;-67
2024/01/20 07:58:23;;;;;;;0.00;0.00;;;;;;;;;;5036088;28;20028;-66
2024/01/20 08:00:49;;;;;;;0.00;0.00;;;;;;;;;;5036673;28;20063;-65
2024/01/20 08:03:15;;;;;;;0.00;0.00;;;;;;;;;;5038681;28;20135;-65
2024/01/20 08:05:40;;;;;;;0.00;0.00;;;;;;;;;;5034048;28;20044;-65
2024/01/20 08:08:06;;;;;;;0.00;0.00;;;;;;;;;;5037080;28;20114;-65
2024/01/20 08:10:32;;;;;;;0.00;0.00;;;;;;;;;;5038406;28;20036;-65
2024/01/20 08:12:58;;;;;;;0.00;0.00;;;;;;;;;;5039144;28;20182;-67
2024/01/20 08:15:24;;;;;;;0.00;0.00;;;;;;;;;;5036805;28;20041;-65
2024/01/20 08:17:50;;;;;;;0.00;0.00;;;;;;;;;;5036318;28;20025;-66
2024/01/20 08:20:16;;;;;;;0.00;0.00;;;;;;;;;;5038979;28;20025;-66
2024/01/20 08:22:42;;;;;;;0.00;0.00;;;;;;;;;;5041331;28;20040;-65
2024/01/20 08:25:09;;;;;;;0.00;0.00;;;;;;;;;;5040750;28;20056;-65
2024/01/20 08:27:35;;;;;;;0.00;0.00;;;;;;;;;;5036725;28;20442;-66
2024/01/20 08:30:01;;;;;;;0.00;0.00;;;;;;;;;;5032292;28;20060;-67
2024/01/20 08:32:27;;;;;;;0.00;0.00;;;;;;;;;;5037553;28;20032;-66
2024/01/20 08:34:53;;;;;;;0.00;0.00;;;;;;;;;;5042403;28;20087;-65
2024/01/20 08:37:19;;;;;;;0.00;0.00;;;;;;;;;;5037119;28;20017;-66
2024/01/20 08:39:45;;;;;;;0.00;0.00;;;;;;;;;;5034243;28;20032;-67
2024/01/20 08:42:11;;;;;;;0.00;0.00;;;;;;;;;;5035797;28;20025;-65
2024/01/20 08:44:37;;;;;;;0.00;0.00;;;;;;;;;;5038823;28;20017;-64
2024/01/20 08:47:03;;;;;;;0.00;0.00;;;;;;;;;;5030837;28;20047;-65
2024/01/20 08:49:29;;;;;;;0.00;0.00;;;;;;;;;;5035907;28;20032;-65
2024/01/20 08:51:55;;;;;;;0.00;0.00;;;;;;;;;;5033478;28;20132;-64
2024/01/20 08:54:21;;;;;;;0.00;0.00;;;;;;;;;;5034198;28;20033;-65
2024/01/20 08:56:48;;;;;;;0.00;0.00;;;;;;;;;;5031151;28;20441;-65
2024/01/20 08:59:14;;;;;;;0.00;0.00;;;;;;;;;;5034329;28;20029;-64
2024/01/20 09:01:41;;;;;;;0.00;0.00;;;;;;;;;;5031292;28;20471;-65
2024/01/20 09:04:06;;;;;;;0.00;0.00;;;;;;;;;;5038805;28;20102;-64
2024/01/20 09:06:32;;;;;;;0.00;0.00;;;;;;;;;;5038879;28;20522;-64
2024/01/20 09:08:58;;;;;;;0.00;0.00;;;;;;;;;;5033008;28;20595;-64
2024/01/20 09:11:24;;;;;;;0.00;0.00;;;;;;;;;;5037200;28;20124;-64
2024/01/20 09:13:50;;;;;;;0.00;0.00;;;;;;;;;;5037776;28;20083;-65
2024/01/20 09:16:17;;;;;;;0.00;0.00;;;;;;;;;;5033366;28;20028;-65
2024/01/20 09:18:43;;;;;;;0.00;0.00;;;;;;;;;;5036659;28;20020;-64
2024/01/20 09:21:12;;;;;;;0.00;0.00;;;;;;;;;;5034670;28;20298;-64
2024/01/20 09:23:39;;;;;;;0.00;0.00;;;;;;;;;;5031712;28;20105;-65
2024/01/20 09:26:05;;;;;;;0.00;0.00;;;;;;;;;;5022373;28;20075;-65
2024/01/20 09:28:31;;;;;;;0.00;0.00;;;;;;;;;;5033177;28;20021;-65
2024/01/20 09:30:56;;;;;;;0.00;0.00;;;;;;;;;;5032392;28;20037;-64
2024/01/20 09:33:22;;;;;;;0.00;0.00;;;;;;;;;;5039897;28;20154;-65
2024/01/20 09:35:48;;;;;;;0.00;0.00;;;;;;;;;;5035485;28;20036;-65
2024/01/20 09:38:14;;;;;;;0.00;0.00;;;;;;;;;;5037406;28;20037;-64
2024/01/20 09:40:40;;;;;;;0.00;0.00;;;;;;;;;;5034871;28;20060;-64
2024/01/20 09:43:06;;;;;;;0.00;0.00;;;;;;;;;;5038159;28;20037;-63
2024/01/20 09:45:38;;;;;;;0.00;0.00;;;;;;;;;;5037757;28;20170;-63
2024/01/20 09:48:04;;;;;;;0.00;0.00;;;;;;;;;;5028972;28;20368;-63
2024/01/20 09:50:30;;;;;;;0.00;0.00;;;;;;;;;;5036560;28;20033;-63
2024/01/20 09:52:58;;;;;;;0.00;0.00;;;;;;;;;;5039381;28;20488;-63
2024/01/20 09:55:25;;;;;;;0.00;0.00;;;;;;;;;;5034819;28;20033;-63
2024/01/20 09:57:51;;;;;;;0.00;0.00;;;;;;;;;;5033131;28;20025;-64
2024/01/20 10:00:19;;;;;;;0.00;0.00;;;;;;;;;;5033723;28;20056;-63
2024/01/20 10:02:45;;;;;;;0.00;0.00;;;;;;;;;;5030910;28;20193;-63
2024/01/20 10:05:12;;;;;;;0.00;0.00;;;;;;;;;;5029666;28;20440;-63
2024/01/20 10:07:38;;;;;;;0.00;0.00;;;;;;;;;;5034673;28;20036;-65
2024/01/20 10:10:06;;;;;;;0.00;0.00;;;;;;;;;;5033396;28;20037;-65
2024/01/20 10:12:32;;;;;;;0.00;0.00;;;;;;;;;;5043963;28;20176;-64
2024/01/20 10:14:58;;;;;;;0.00;0.00;;;;;;;;;;5035100;28;20117;-65
2024/01/20 10:17:24;;;;;;;0.00;0.00;;;;;;;;;;5037468;28;20474;-64
2024/01/20 10:19:50;;;;;;;0.00;0.00;;;;;;;;;;5042932;28;20047;-64
2024/01/20 10:22:16;;;;;;;0.00;0.00;;;;;;;;;;5038605;28;20165;-63
2024/01/20 10:24:46;;;;;;;0.00;0.00;;;;;;;;;;5042194;28;20513;-65
2024/01/20 10:27:19;;;;;;;0.00;0.00;;;;;;;;;;5043659;28;20379;-64
2024/01/20 10:29:45;;;;;;;;;;;;;;;;;;5034918;28;20037;-64
2024/01/20 10:32:11;;;;;;;0.00;0.00;;;;;;;;;;5044084;28;19920;-64
2024/01/20 10:34:37;;;;;;;0.00;0.00;;;;;;;;;;5043664;28;20120;-65
2024/01/20 10:37:09;;;;;;;0.00;0.00;;;;;;;;;;5042144;28;20175;-65
2024/01/20 10:39:38;;;;;;;0.00;0.00;;;;;;;;;;5039311;28;20396;-64
2024/01/20 10:42:05;;;;;;;0.00;0.00;;;;;;;;;;5040924;28;20411;-65
2024/01/20 10:44:31;;;;;;;0.00;0.00;;;;;;;;;;5039726;28;20486;-65
2024/01/20 10:47:01;;;;;;;0.00;0.00;;;;;;;;;;5036426;28;20048;-65
2024/01/20 10:49:27;;;;;;;0.00;0.00;;;;;;;;;;5039490;28;20120;-65
2024/01/20 10:51:54;;;;;;;0.00;0.00;;;;;;;;;;5038124;28;20163;-64
2024/01/20 10:54:21;;;;;;;0.00;0.00;;;;;;;;;;5038268;28;20489;-65
2024/01/20 10:56:47;;;;;;;0.00;0.00;;;;;;;;;;5039100;28;20044;-64
2024/01/20 10:59:14;;;;;;;0.00;0.00;;;;;;;;;;5036321;28;20058;-67
2024/01/20 11:01:41;;;;;;;0.00;0.00;;;;;;;;;;5035137;28;20481;-68
2024/01/20 11:04:08;;;;;;;0.00;0.00;;;;;;;;;;5038334;28;20044;-67
2024/01/20 11:06:35;;;;;;;0.00;0.00;;;;;;;;;;5033594;28;20060;-67
2024/01/20 11:09:02;;;;;;;0.00;0.00;;;;;;;;;;5035704;28;20040;-68
2024/01/20 11:11:29;;;;;;;0.00;0.00;;;;;;;;;;5032859;28;20110;-68
2024/01/20 11:14:01;;;;;;;0.00;0.00;;;;;;;;;;5037304;28;20488;-68
2024/01/20 11:16:32;;;;;;;0.00;0.00;;;;;;;;;;5035367;28;20013;-68
2024/01/20 11:19:08;;;;;;;0.00;0.00;;;;;;;;;;5037930;28;20504;-68
2024/01/20 11:21:34;;;;;;;0.00;0.00;;;;;;;;;;5033468;28;20021;-67
2024/01/20 11:24:00;;;;;;;0.00;0.00;;;;;;;;;;5036620;28;20625;-68
2024/01/20 11:26:34;;;;;;;0.00;0.00;;;;;;;;;;5035975;28;20112;-68
2024/01/20 11:29:00;;;;;;;0.00;0.00;;;;;;;;;;5029081;28;20088;-68
2024/01/20 11:31:27;;;;;;;0.00;0.00;;;;;;;;;;5029092;28;20031;-68
2024/01/20 11:33:53;;;;;;;0.00;0.00;;;;;;;;;;5035022;28;20036;-67
2024/01/20 11:36:19;;;;;;;0.00;0.00;;;;;;;;;;5032013;28;20041;-68
2024/01/20 11:38:46;;;;;;;0.00;0.00;;;;;;;;;;5034994;28;20095;-67
2024/01/20 11:41:12;;;;;;;0.00;0.00;;;;;;;;;;5031132;28;20163;-67
2024/01/20 11:43:45;;;;;;;0.00;0.00;;;;;;;;;;5032468;28;20033;-68
2024/01/20 11:46:12;;;;;;;0.00;0.00;;;;;;;;;;5038155;28;20028;-67
2024/01/20 11:48:38;;;;;;;0.00;0.00;;;;;;;;;;5033031;28;20033;-68
2024/01/20 11:51:04;;;;;;;0.00;0.00;;;;;;;;;;5032899;28;20506;-67
2024/01/20 11:53:30;;;;;;;0.00;0.00;;;;;;;;;;5035763;28;20045;-68
2024/01/20 11:56:01;;;;;;;0.00;0.00;;;;;;;;;;5034016;28;20036;-68
2024/01/20 11:58:28;;;;;;;0.00;0.00;;;;;;;;;;5030729;28;20234;-67
2024/01/20 12:00:54;;;;;;;0.00;0.00;;;;;;;;;;5033625;28;20102;-68
2024/01/20 12:03:20;;;;;;;0.00;0.00;;;;;;;;;;5033591;28;20417;-68
2024/01/20 12:05:46;;;;;;;0.00;0.00;;;;;;;;;;5036210;28;20526;-68
2024/01/20 12:08:14;;;;;;;0.00;0.00;;;;;;;;;;5039796;28;20051;-68
2024/01/20 12:10:42;;;;;;;0.00;0.00;;;;;;;;;;5033478;28;20555;-65
2024/01/20 12:13:08;;;;;;;0.00;0.00;;;;;;;;;;5038773;28;20067;-64
2024/01/20 12:15:37;;;;;;;0.00;0.00;;;;;;;;;;5034741;28;20036;-65
2024/01/20 12:18:04;;;;;;;0.00;0.00;;;;;;;;;;5039478;28;20049;-66
2024/01/20 12:20:30;;;;;;;0.00;0.00;;;;;;;;;;5038005;28;20041;-67
2024/01/20 12:22:57;;;;;;;0.00;0.00;;;;;;;;;;5035886;28;20036;-67
2024/01/20 12:25:23;;;;;;;0.00;0.00;;;;;;;;;;5032545;28;20074;-66
2024/01/20 12:27:50;;;;;;;0.00;0.00;;;;;;;;;;5034296;28;20029;-67
2024/01/20 12:30:16;;;;;;;0.00;0.00;;;;;;;;;;5037119;28;20052;-66
2024/01/20 12:32:42;;;;;;;0.00;0.00;;;;;;;;;;5035799;28;20025;-67
2024/01/20 12:35:08;;;;;;;0.00;0.00;;;;;;;;;;5031378;28;20399;-66
2024/01/20 12:37:34;;;;;;;0.00;0.00;;;;;;;;;;5035151;28;20041;-66
2024/01/20 12:40:00;;;;;;;0.00;0.00;;;;;;;;;;5037000;28;20575;-66
2024/01/20 12:42:26;;;;;;;0.00;0.00;;;;;;;;;;5034881;28;20444;-66
2024/01/20 12:44:54;;;;;;;0.00;0.00;;;;;;;;;;5034428;28;20480;-67
2024/01/20 12:47:20;;;;;;;0.00;0.00;;;;;;;;;;5034334;28;20025;-66
2024/01/20 12:49:45;;;;;;;0.00;0.00;;;;;;;;;;5027429;28;20945;-65
2024/01/20 12:52:11;;;;;;;0.00;0.00;;;;;;;;;;5038423;28;20488;-64
2024/01/20 12:54:37;;;;;;;0.00;0.00;;;;;;;;;;5039464;28;20056;-64
2024/01/20 12:57:04;;;;;;;0.00;0.00;;;;;;;;;;5037954;28;20060;-64
2024/01/20 12:59:30;;;;;;;0.00;0.00;;;;;;;;;;5037417;28;20028;-65
2024/01/20 13:01:56;;;;;;;0.00;0.00;;;;;;;;;;5034483;28;20049;-64
2024/01/20 13:04:22;;;;;;;0.00;0.00;;;;;;;;;;5036741;28;20025;-65
2024/01/20 13:06:48;;;;;;;0.00;0.00;;;;;;;;;;5033679;28;20586;-65
2024/01/20 13:09:14;;;;;;;0.00;0.00;;;;;;;;;;5037023;28;20083;-65
2024/01/20 13:11:40;;;;;;;0.00;0.00;;;;;;;;;;5031761;28;20047;-64
2024/01/20 13:14:07;;;;;;;0.00;0.00;;;;;;;;;;5030520;28;20108;-66
2024/01/20 13:16:33;;;;;;;0.00;0.00;;;;;;;;;;5052818;28;20028;-64
2024/01/20 13:18:59;;;;;;;0.00;0.00;;;;;;;;;;5038944;28;20035;-65
2024/01/20 13:21:25;;;;;;;0.00;0.00;;;;;;;;;;5036927;28;20114;-67
2024/01/20 13:23:51;;;;;;;0.00;0.00;;;;;;;;;;5033028;28;20032;-67
2024/01/20 13:26:17;;;;;;;0.00;0.00;;;;;;;;;;5035242;28;20033;-67
2024/01/20 13:28:46;;;;;;;0.00;0.00;;;;;;;;;;5037517;28;20332;-67
2024/01/20 13:31:11;;;;;;;0.00;0.00;;;;;;;;;;5030521;28;20021;-64
2024/01/20 13:33:37;;;;;;;0.00;0.00;;;;;;;;;;5032559;28;20105;-64
2024/01/20 13:36:04;;;;;;;0.00;0.00;;;;;;;;;;5031040;28;20037;-65
2024/01/20 13:38:29;;;;;;;0.00;0.00;;;;;;;;;;5031428;28;20102;-65
2024/01/20 13:40:57;;;;;;;0.00;0.00;;;;;;;;;;5034237;28;20037;-67
2024/01/20 13:43:23;;;;;;;0.00;0.00;;;;;;;;;;5032607;28;20502;-67
2024/01/20 13:45:49;;;;;;;0.00;0.00;;;;;;;;;;5033317;28;20033;-67
2024/01/20 13:48:15;;;;;;;0.00;0.00;;;;;;;;;;5041628;28;20499;-67
2024/01/20 13:50:41;;;;;;;0.00;0.00;;;;;;;;;;5036337;28;20496;-67
2024/01/20 13:53:08;;;;;;;0.00;0.00;;;;;;;;;;5037964;28;20758;-66
2024/01/20 13:55:34;;;;;;;0.00;0.00;;;;;;;;;;5037596;28;20037;-66
2024/01/20 13:58:00;;;;;;;0.00;0.00;;;;;;;;;;5040971;28;20036;-67
2024/01/20 14:00:26;;;;;;;0.00;0.00;;;;;;;;;;5034556;28;20649;-67
2024/01/20 14:02:52;;;;;;;0.00;0.00;;;;;;;;;;5041851;28;20107;-68
2024/01/20 14:05:18;;;;;;;0.00;0.00;;;;;;;;;;5040649;28;20086;-68
2024/01/20 14:07:44;;;;;;;0.00;0.00;;;;;;;;;;5039498;28;20480;-68
2024/01/20 14:10:11;;;;;;;0.00;0.00;;;;;;;;;;5039020;28;20118;-68
2024/01/20 14:12:37;;;;;;;0.00;0.00;;;;;;;;;;5039492;28;20125;-68
2024/01/20 14:15:03;;;;;;;0.00;0.00;;;;;;;;;;5033832;28;20144;-68
2024/01/20 14:17:29;;;;;;;0.00;0.00;;;;;;;;;;5041158;28;20083;-68
2024/01/20 14:19:55;;;;;;;0.00;0.00;;;;;;;;;;5044276;28;20451;-68
2024/01/20 14:22:22;;;;;;;0.00;0.00;;;;;;;;;;5040470;28;20039;-68
2024/01/20 14:24:48;;;;;;;0.00;0.00;;;;;;;;;;5039769;28;20029;-68
2024/01/20 14:27:14;;;;;;;0.00;0.00;;;;;;;;;;5040582;28;20350;-68
2024/01/20 14:29:40;;;;;;;0.00;0.00;;;;;;;;;;5040555;28;20138;-68
2024/01/20 14:32:07;;;;;;;0.00;0.00;;;;;;;;;;5040122;28;20080;-68
2024/01/20 14:34:34;;;;;;;0.00;0.00;;;;;;;;;;5034704;28;20040;-68
2024/01/20 14:37:00;;;;;;;0.00;0.00;;;;;;;;;;5034705;28;20067;-68